createdAt,value
2019-04-25T00:00:44.852Z,29.81
2019-04-25T00:01:44.874Z,29.73
2019-04-25T00:02:44.893Z,29.75
2019-04-25T00:03:44.911Z,29.79
2019-04-25T00:04:44.933Z,29.83
2019-04-25T00:05:44.957Z,29.79
2019-04-25T00:06:45.004Z,29.84
2019-04-25T00:07:44.995Z,29.73
2019-04-25T00:08:45.320Z,29.66
2019-04-25T00:09:45.240Z,29.78
2019-04-25T00:10:45.430Z,29.79
2019-04-25T00:11:46.646Z,29.84
2019-04-25T00:12:45.703Z,29.81
2019-04-25T00:13:45.647Z,29.84
2019-04-25T00:14:45.860Z,29.83
2019-04-25T00:15:46.293Z,29.87
2019-04-25T00:16:45.260Z,29.92
2019-04-25T00:17:45.210Z,29.92
2019-04-25T00:18:45.212Z,29.81
2019-04-25T00:19:45.232Z,29.90
2019-04-25T00:20:45.252Z,29.87
2019-04-25T00:21:45.274Z,29.81
2019-04-25T00:22:45.293Z,29.78
2019-04-25T00:23:45.316Z,29.76
2019-04-25T00:24:45.334Z,29.84
2019-04-25T00:25:47.151Z,29.84
2019-04-25T00:26:46.243Z,29.90
2019-04-25T00:27:46.314Z,29.94
2019-04-25T00:28:45.495Z,29.94
2019-04-25T00:29:45.803Z,29.90
2019-04-25T00:30:46.054Z,29.90
2019-04-25T00:31:45.822Z,29.95
2019-04-25T00:32:45.495Z,29.94
2019-04-25T00:33:46.043Z,29.92
2019-04-25T00:34:46.481Z,29.90
2019-04-25T00:35:45.796Z,29.94
2019-04-25T00:36:45.677Z,29.91
2019-04-25T00:37:46.180Z,30.00
2019-04-25T00:38:47.810Z,30.05
2019-04-25T00:39:46.156Z,30.06
2019-04-25T00:40:45.919Z,30.07
2019-04-25T00:41:46.399Z,30.03
2019-04-25T00:42:46.241Z,29.97
2019-04-25T00:43:45.717Z,29.88
2019-04-25T00:44:45.945Z,29.85
2019-04-25T00:45:45.797Z,29.84
2019-04-25T00:46:48.594Z,29.94
2019-04-25T00:47:45.798Z,29.94
2019-04-25T00:48:45.820Z,29.79
2019-04-25T00:49:46.055Z,29.85
2019-04-25T00:50:46.038Z,29.92
2019-04-25T00:51:46.139Z,29.88
2019-04-25T00:52:46.229Z,29.88
2019-04-25T00:53:46.123Z,29.90
2019-04-25T00:54:46.281Z,29.99
2019-04-25T00:55:46.461Z,30.06
2019-04-25T00:56:47.789Z,30.05
2019-04-25T00:57:46.742Z,30.00
2019-04-25T00:58:46.743Z,30.06
2019-04-25T00:59:46.759Z,29.99
2019-04-25T01:00:46.929Z,30.06
2019-04-25T01:01:46.860Z,30.03
2019-04-25T01:02:46.100Z,30.10
2019-04-25T01:03:46.122Z,30.06
2019-04-25T01:04:46.159Z,30.18
2019-04-25T01:05:46.163Z,30.12
2019-04-25T01:06:46.183Z,30.14
2019-04-25T01:07:46.205Z,30.22
2019-04-25T01:08:46.221Z,30.21
2019-04-25T01:09:46.320Z,30.21
2019-04-25T01:10:46.264Z,30.22
2019-04-25T01:11:46.283Z,30.16
2019-04-25T01:12:46.302Z,30.20
2019-04-25T01:13:46.325Z,30.31
2019-04-25T01:14:46.523Z,30.37
2019-04-25T01:15:46.432Z,30.39
2019-04-25T01:16:46.527Z,30.36
2019-04-25T01:17:46.978Z,30.39
2019-04-25T01:18:46.803Z,30.40
2019-04-25T01:19:46.805Z,30.36
2019-04-25T01:20:46.969Z,30.39
2019-04-25T01:21:46.996Z,30.37
2019-04-25T01:22:47.183Z,30.31
2019-04-25T01:23:47.271Z,30.22
2019-04-25T01:24:47.261Z,30.21
2019-04-25T01:25:47.136Z,30.07
2019-04-25T01:26:47.501Z,30.24
2019-04-25T01:27:46.612Z,30.22
2019-04-25T01:28:46.628Z,30.24
2019-04-25T01:29:46.650Z,30.36
2019-04-25T01:30:46.668Z,30.36
2019-04-25T01:31:46.688Z,30.44
2019-04-25T01:32:46.808Z,30.44
2019-04-25T01:33:46.783Z,30.52
2019-04-25T01:34:47.053Z,30.66
2019-04-25T01:35:47.366Z,30.65
2019-04-25T01:36:47.224Z,30.63
2019-04-25T01:37:47.489Z,30.57
2019-04-25T01:38:47.409Z,30.56
2019-04-25T01:39:47.527Z,30.52
2019-04-25T01:40:48.172Z,30.59
2019-04-25T01:41:47.675Z,30.57
2019-04-25T01:42:47.869Z,30.57
2019-04-25T01:43:48.430Z,30.57
2019-04-25T01:44:47.966Z,30.65
2019-04-25T01:45:48.066Z,30.60
2019-04-25T01:46:48.161Z,30.75
2019-04-25T01:47:48.861Z,30.78
2019-04-25T01:48:48.514Z,30.72
2019-04-25T01:49:47.067Z,30.80
2019-04-25T01:50:47.077Z,30.78
2019-04-25T01:51:47.099Z,30.85
2019-04-25T01:52:47.118Z,30.80
2019-04-25T01:53:47.139Z,30.77
2019-04-25T01:54:47.162Z,30.69
2019-04-25T01:55:56.171Z,30.74
2019-04-25T01:56:47.201Z,30.65
2019-04-25T01:57:47.221Z,30.62
2019-04-25T01:58:47.242Z,30.65
2019-04-25T01:59:47.265Z,30.74
2019-04-25T02:00:47.287Z,30.75
2019-04-25T02:01:47.307Z,30.80
2019-04-25T02:02:47.330Z,30.84
2019-04-25T02:03:47.346Z,30.87
2019-04-25T02:04:47.367Z,30.77
2019-04-25T02:05:47.387Z,30.72
2019-04-25T02:06:47.407Z,30.69
2019-04-25T02:07:47.427Z,30.67
2019-04-25T02:08:47.449Z,30.80
2019-04-25T02:09:47.472Z,30.82
2019-04-25T02:10:47.489Z,30.70
2019-04-25T02:11:47.511Z,30.65
2019-04-25T02:12:47.532Z,30.66
2019-04-25T02:13:47.553Z,30.75
2019-04-25T02:14:47.575Z,30.69
2019-04-25T02:15:47.592Z,30.72
2019-04-25T02:16:47.633Z,30.69
2019-04-25T02:17:47.635Z,30.72
2019-04-25T02:18:47.911Z,30.72
2019-04-25T02:19:47.676Z,30.67
2019-04-25T02:20:47.695Z,30.70
2019-04-25T02:21:47.717Z,30.72
2019-04-25T02:22:47.739Z,30.77
2019-04-25T02:23:47.757Z,30.84
2019-04-25T02:24:47.782Z,30.84
2019-04-25T02:25:47.802Z,30.85
2019-04-25T02:26:47.819Z,30.93
2019-04-25T02:27:47.888Z,30.85
2019-04-25T02:28:47.862Z,30.85
2019-04-25T02:29:47.891Z,30.87
2019-04-25T02:30:47.903Z,30.85
2019-04-25T02:31:47.922Z,30.87
2019-04-25T02:32:47.962Z,30.94
2019-04-25T02:33:47.964Z,30.89
2019-04-25T02:34:47.984Z,30.87
2019-04-25T02:35:48.007Z,30.94
2019-04-25T02:36:48.028Z,30.85
2019-04-25T02:37:48.304Z,31.03
2019-04-25T02:38:48.179Z,30.99
2019-04-25T02:39:48.191Z,30.96
2019-04-25T02:40:48.110Z,31.00
2019-04-25T02:41:48.189Z,31.07
2019-04-25T02:42:48.169Z,31.04
2019-04-25T02:43:48.173Z,31.21
2019-04-25T02:44:48.195Z,31.12
2019-04-25T02:45:48.215Z,31.03
2019-04-25T02:46:48.239Z,31.14
2019-04-25T02:47:48.260Z,31.06
2019-04-25T02:48:48.279Z,31.03
2019-04-25T02:49:52.133Z,31.02
2019-04-25T02:50:48.319Z,31.04
2019-04-25T02:51:48.337Z,31.12
2019-04-25T02:52:48.360Z,31.18
2019-04-25T02:53:48.379Z,31.18
2019-04-25T02:54:48.404Z,31.19
2019-04-25T02:55:48.422Z,31.26
2019-04-25T02:56:48.444Z,31.22
2019-04-25T02:57:48.470Z,31.18
2019-04-25T02:58:48.834Z,31.26
2019-04-25T02:59:48.510Z,31.34
2019-04-25T03:00:57.271Z,31.44
2019-04-25T03:01:48.555Z,31.40
2019-04-25T03:02:48.569Z,31.46
2019-04-25T03:03:48.589Z,31.49
2019-04-25T03:04:48.615Z,31.43
2019-04-25T03:05:48.652Z,31.52
2019-04-25T03:06:48.655Z,31.38
2019-04-25T03:07:48.689Z,31.34
2019-04-25T03:08:48.752Z,31.34
2019-04-25T03:09:48.719Z,31.53
2019-04-25T03:10:48.737Z,31.51
2019-04-25T03:11:48.757Z,31.52
2019-04-25T03:12:48.790Z,31.48
2019-04-25T03:13:48.802Z,31.53
2019-04-25T03:14:48.820Z,31.49
2019-04-25T03:15:48.849Z,31.59
2019-04-25T03:16:48.863Z,31.62
2019-04-25T03:17:48.893Z,31.52
2019-04-25T03:18:48.907Z,31.62
2019-04-25T03:19:48.927Z,31.60
2019-04-25T03:20:48.949Z,31.53
2019-04-25T03:21:48.975Z,31.62
2019-04-25T03:22:48.996Z,31.66
2019-04-25T03:23:49.015Z,31.66
2019-04-25T03:24:49.043Z,31.58
2019-04-25T03:25:49.055Z,31.59
2019-04-25T03:26:49.074Z,31.66
2019-04-25T03:27:49.096Z,31.62
2019-04-25T03:28:49.117Z,31.60
2019-04-25T03:29:49.139Z,31.67
2019-04-25T03:30:49.167Z,31.63
2019-04-25T03:31:49.180Z,31.63
2019-04-25T03:32:51.510Z,31.67
2019-04-25T03:33:49.231Z,31.74
2019-04-25T03:34:49.250Z,31.73
2019-04-25T03:35:49.272Z,31.71
2019-04-25T03:36:49.287Z,31.74
2019-04-25T03:37:49.310Z,31.80
2019-04-25T03:38:49.329Z,31.80
2019-04-25T03:39:49.365Z,31.86
2019-04-25T03:40:49.372Z,31.78
2019-04-25T03:41:49.394Z,31.80
2019-04-25T03:42:49.414Z,31.86
2019-04-25T03:43:49.435Z,31.74
2019-04-25T03:44:49.467Z,31.86
2019-04-25T03:45:49.477Z,31.86
2019-04-25T03:46:49.499Z,31.93
2019-04-25T03:47:49.524Z,31.80
2019-04-25T03:48:49.552Z,31.90
2019-04-25T03:49:49.563Z,31.93
2019-04-25T03:50:49.588Z,31.93
2019-04-25T03:51:49.608Z,31.91
2019-04-25T03:52:49.629Z,32.00
2019-04-25T03:53:49.652Z,31.97
2019-04-25T03:54:49.674Z,31.94
2019-04-25T03:55:49.697Z,31.91
2019-04-25T03:56:53.828Z,31.94
2019-04-25T03:57:49.735Z,31.98
2019-04-25T03:58:49.755Z,32.05
2019-04-25T03:59:49.777Z,32.03
2019-04-25T04:00:49.818Z,32.03
2019-04-25T04:01:49.973Z,31.89
2019-04-25T04:02:49.841Z,32.00
2019-04-25T04:03:49.868Z,32.01
2019-04-25T04:04:49.888Z,32.00
2019-04-25T04:05:51.678Z,32.09
2019-04-25T04:06:49.928Z,32.06
2019-04-25T04:07:53.474Z,32.18
2019-04-25T04:08:49.974Z,32.16
2019-04-25T04:09:49.993Z,32.12
2019-04-25T04:10:50.014Z,32.11
2019-04-25T04:11:50.038Z,32.18
2019-04-25T04:12:50.059Z,32.16
2019-04-25T04:13:50.082Z,32.15
2019-04-25T04:14:50.117Z,32.20
2019-04-25T04:15:50.123Z,32.23
2019-04-25T04:16:50.147Z,32.23
2019-04-25T04:17:50.166Z,32.12
2019-04-25T04:18:50.188Z,32.16
2019-04-25T04:19:50.208Z,32.25
2019-04-25T04:20:50.242Z,32.31
2019-04-25T04:21:50.256Z,32.23
2019-04-25T04:22:50.283Z,32.20
2019-04-25T04:23:50.299Z,32.34
2019-04-25T04:24:50.317Z,32.30
2019-04-25T04:25:50.344Z,32.28
2019-04-25T04:27:01.594Z,32.23
2019-04-25T04:27:50.393Z,32.18
2019-04-25T04:28:50.404Z,32.20
2019-04-25T04:29:50.427Z,32.23
2019-04-25T04:30:50.469Z,32.24
2019-04-25T04:31:50.468Z,32.27
2019-04-25T04:32:50.490Z,32.31
2019-04-25T04:33:50.513Z,32.35
2019-04-25T04:34:50.554Z,32.35
2019-04-25T04:35:50.554Z,32.25
2019-04-25T04:36:50.582Z,32.31
2019-04-25T04:37:50.676Z,32.30
2019-04-25T04:38:50.715Z,32.34
2019-04-25T04:39:50.641Z,32.28
2019-04-25T04:40:50.664Z,32.35
2019-04-25T04:41:50.684Z,32.47
2019-04-25T04:42:50.706Z,32.43
2019-04-25T04:43:50.728Z,32.34
2019-04-25T04:44:50.755Z,32.33
2019-04-25T04:45:50.774Z,32.30
2019-04-25T04:46:50.796Z,32.25
2019-04-25T04:47:50.816Z,32.35
2019-04-25T04:48:50.840Z,32.30
2019-04-25T04:49:50.859Z,32.30
2019-04-25T04:50:50.881Z,32.31
2019-04-25T04:51:50.910Z,32.45
2019-04-25T04:52:50.925Z,32.40
2019-04-25T04:53:50.946Z,32.40
2019-04-25T04:55:02.911Z,32.45
2019-04-25T04:55:50.988Z,32.38
2019-04-25T04:56:51.015Z,32.49
2019-04-25T04:57:51.037Z,32.37
2019-04-25T04:58:51.055Z,32.38
2019-04-25T04:59:51.083Z,32.49
2019-04-25T05:00:51.097Z,32.45
2019-04-25T05:01:51.121Z,32.46
2019-04-25T05:02:51.145Z,32.33
2019-04-25T05:03:51.165Z,32.33
2019-04-25T05:04:51.262Z,32.28
2019-04-25T05:05:51.373Z,32.35
2019-04-25T05:06:51.306Z,32.38
2019-04-25T05:07:51.255Z,32.40
2019-04-25T05:08:51.273Z,32.47
2019-04-25T05:09:51.299Z,32.47
2019-04-25T05:10:51.380Z,32.56
2019-04-25T05:11:51.638Z,32.45
2019-04-25T05:12:53.163Z,32.46
2019-04-25T05:13:51.386Z,32.47
2019-04-25T05:14:51.403Z,32.49
2019-04-25T05:15:51.733Z,32.47
2019-04-25T05:16:53.196Z,32.47
2019-04-25T05:17:51.469Z,32.55
2019-04-25T05:18:51.488Z,32.56
2019-04-25T05:19:51.513Z,32.56
2019-04-25T05:20:51.547Z,32.72
2019-04-25T05:21:51.557Z,32.67
2019-04-25T05:22:53.309Z,32.74
2019-04-25T05:23:51.604Z,32.79
2019-04-25T05:24:51.622Z,32.86
2019-04-25T05:25:51.645Z,32.89
2019-04-25T05:26:51.665Z,32.83
2019-04-25T05:28:00.644Z,32.84
2019-04-25T05:28:51.709Z,32.82
2019-04-25T05:29:51.733Z,32.83
2019-04-25T05:30:53.438Z,32.86
2019-04-25T05:31:51.778Z,32.84
2019-04-25T05:32:51.797Z,32.83
2019-04-25T05:33:53.552Z,32.69
2019-04-25T05:34:53.267Z,32.82
2019-04-25T05:35:51.862Z,32.84
2019-04-25T05:36:51.885Z,32.80
2019-04-25T05:37:53.286Z,32.74
2019-04-25T05:38:51.928Z,32.77
2019-04-25T05:39:53.518Z,32.62
2019-04-25T05:40:51.972Z,32.67
2019-04-25T05:41:51.995Z,32.61
2019-04-25T05:42:52.017Z,32.60
2019-04-25T05:43:53.531Z,32.74
2019-04-25T05:44:52.062Z,32.68
2019-04-25T05:45:52.085Z,32.64
2019-04-25T05:46:52.104Z,32.57
2019-04-25T05:47:52.132Z,32.49
2019-04-25T05:48:53.686Z,32.53
2019-04-25T05:49:52.172Z,32.57
2019-04-25T05:50:53.678Z,32.64
2019-04-25T05:51:53.796Z,32.61
2019-04-25T05:52:54.139Z,32.74
2019-04-25T05:53:53.088Z,32.69
2019-04-25T05:54:52.279Z,32.75
2019-04-25T05:55:53.969Z,32.82
2019-04-25T05:56:53.748Z,32.84
2019-04-25T05:57:53.643Z,32.80
2019-04-25T05:58:53.239Z,32.87
2019-04-25T05:59:53.726Z,32.86
2019-04-25T06:00:53.951Z,32.89
2019-04-25T06:01:53.809Z,32.82
2019-04-25T06:02:53.367Z,32.86
2019-04-25T06:03:53.592Z,32.96
2019-04-25T06:04:53.545Z,33.04
2019-04-25T06:05:53.373Z,33.02
2019-04-25T06:06:53.052Z,33.11
2019-04-25T06:07:54.178Z,33.04
2019-04-25T06:08:54.149Z,33.05
2019-04-25T06:09:54.304Z,33.06
2019-04-25T06:10:53.838Z,33.12
2019-04-25T06:11:53.350Z,33.14
2019-04-25T06:12:53.655Z,33.11
2019-04-25T06:13:53.204Z,33.21
2019-04-25T06:14:52.956Z,33.28
2019-04-25T06:15:53.361Z,33.24
2019-04-25T06:16:53.630Z,33.31
2019-04-25T06:17:53.419Z,33.33
2019-04-25T06:18:52.812Z,33.14
2019-04-25T06:19:53.451Z,33.09
2019-04-25T06:20:54.276Z,33.20
2019-04-25T06:21:53.509Z,33.28
2019-04-25T06:22:53.384Z,33.33
2019-04-25T06:23:54.456Z,33.40
2019-04-25T06:24:54.237Z,33.50
2019-04-25T06:25:53.776Z,33.54
2019-04-25T06:26:53.881Z,33.58
2019-04-25T06:27:58.624Z,33.52
2019-04-25T06:28:58.965Z,33.50
2019-04-25T06:30:00.299Z,33.52
2019-04-25T06:30:54.097Z,33.70
2019-04-25T06:32:04.181Z,33.74
2019-04-25T06:32:53.387Z,33.71
2019-04-25T06:33:53.947Z,33.78
2019-04-25T06:34:54.242Z,33.77
2019-04-25T06:35:54.773Z,33.70
2019-04-25T06:36:53.668Z,33.63
2019-04-25T06:37:53.719Z,33.76
2019-04-25T06:38:54.194Z,33.73
2019-04-25T06:39:53.690Z,33.74
2019-04-25T06:40:53.626Z,33.81
2019-04-25T06:41:54.058Z,33.85
2019-04-25T06:42:55.137Z,33.81
2019-04-25T06:43:54.135Z,33.90
2019-04-25T06:44:53.602Z,33.92
2019-04-25T06:45:55.239Z,33.84
2019-04-25T06:46:53.602Z,33.87
2019-04-25T06:47:54.049Z,33.83
2019-04-25T06:48:53.530Z,33.83
2019-04-25T06:49:53.510Z,33.74
2019-04-25T06:50:53.776Z,33.78
2019-04-25T06:51:54.583Z,33.76
2019-04-25T06:52:53.773Z,33.74
2019-04-25T06:53:53.603Z,33.77
2019-04-25T06:54:53.624Z,33.73
2019-04-25T06:55:53.663Z,33.73
2019-04-25T06:56:53.690Z,33.80
2019-04-25T06:57:54.039Z,33.76
2019-04-25T06:58:55.000Z,33.89
2019-04-25T06:59:53.738Z,33.98
2019-04-25T07:00:58.789Z,33.92
2019-04-25T07:01:55.923Z,33.93
2019-04-25T07:02:53.801Z,33.98
2019-04-25T07:03:54.043Z,33.98
2019-04-25T07:04:54.051Z,33.87
2019-04-25T07:05:53.875Z,33.92
2019-04-25T07:06:53.904Z,33.92
2019-04-25T07:07:53.913Z,33.95
2019-04-25T07:08:53.939Z,33.89
2019-04-25T07:09:54.026Z,33.89
2019-04-25T07:10:55.292Z,33.85
2019-04-25T07:11:54.023Z,33.84
2019-04-25T07:12:54.422Z,33.83
2019-04-25T07:13:54.053Z,33.74
2019-04-25T07:14:54.073Z,33.87
2019-04-25T07:15:54.097Z,33.83
2019-04-25T07:16:54.121Z,33.83
2019-04-25T07:17:54.146Z,33.89
2019-04-25T07:18:54.163Z,33.84
2019-04-25T07:19:54.299Z,33.92
2019-04-25T07:20:54.210Z,33.95
2019-04-25T07:21:54.244Z,33.99
2019-04-25T07:22:54.260Z,34.00
2019-04-25T07:23:54.279Z,34.10
2019-04-25T07:24:54.302Z,34.20
2019-04-25T07:25:54.323Z,34.20
2019-04-25T07:26:54.361Z,34.15
2019-04-25T07:27:54.369Z,34.15
2019-04-25T07:28:54.393Z,34.14
2019-04-25T07:29:54.414Z,34.24
2019-04-25T07:30:54.686Z,34.18
2019-04-25T07:31:54.460Z,34.15
2019-04-25T07:32:54.492Z,34.18
2019-04-25T07:33:54.508Z,34.18
2019-04-25T07:34:55.176Z,34.22
2019-04-25T07:35:56.592Z,34.17
2019-04-25T07:36:54.577Z,34.17
2019-04-25T07:37:54.597Z,34.07
2019-04-25T07:39:07.630Z,34.11
2019-04-25T07:39:54.681Z,34.20
2019-04-25T07:40:54.667Z,34.30
2019-04-25T07:41:54.690Z,34.27
2019-04-25T07:42:54.711Z,34.34
2019-04-25T07:43:54.738Z,34.30
2019-04-25T07:44:55.243Z,34.37
2019-04-25T07:45:54.783Z,34.36
2019-04-25T07:46:55.246Z,34.44
2019-04-25T07:47:54.850Z,34.40
2019-04-25T07:48:54.852Z,34.37
2019-04-25T07:49:54.875Z,34.47
2019-04-25T07:50:54.895Z,34.45
2019-04-25T07:51:54.970Z,34.47
2019-04-25T07:52:54.943Z,34.54
2019-04-25T07:53:54.967Z,34.42
2019-04-25T07:54:54.989Z,34.47
2019-04-25T07:55:55.029Z,34.36
2019-04-25T07:56:55.158Z,34.36
2019-04-25T07:57:55.124Z,34.37
2019-04-25T07:58:55.078Z,34.34
2019-04-25T07:59:55.104Z,34.33
2019-04-25T08:00:55.128Z,34.33
2019-04-25T08:01:55.160Z,34.44
2019-04-25T08:02:55.350Z,34.33
2019-04-25T08:03:55.199Z,34.39
2019-04-25T08:04:55.897Z,34.54
2019-04-25T08:05:55.248Z,34.55
2019-04-25T08:06:55.265Z,34.61
2019-04-25T08:07:55.289Z,34.63
2019-04-25T08:08:55.312Z,34.61
2019-04-25T08:09:55.343Z,34.58
2019-04-25T08:10:55.362Z,34.66
2019-04-25T08:11:55.385Z,34.61
2019-04-25T08:12:55.403Z,34.52
2019-04-25T08:13:55.431Z,34.61
2019-04-25T08:14:55.463Z,34.61
2019-04-25T08:15:55.477Z,34.56
2019-04-25T08:16:55.504Z,34.34
2019-04-25T08:17:55.522Z,34.45
2019-04-25T08:18:55.549Z,34.36
2019-04-25T08:19:55.567Z,34.37
2019-04-25T08:20:55.605Z,34.34
2019-04-25T08:21:55.615Z,34.34
2019-04-25T08:22:58.445Z,34.36
2019-04-25T08:23:55.657Z,34.40
2019-04-25T08:24:55.681Z,34.37
2019-04-25T08:25:55.705Z,34.29
2019-04-25T08:26:55.728Z,34.30
2019-04-25T08:27:55.778Z,34.37
2019-04-25T08:28:57.800Z,34.44
2019-04-25T08:29:55.798Z,34.37
2019-04-25T08:30:55.821Z,34.34
2019-04-25T08:31:55.845Z,34.37
2019-04-25T08:32:55.869Z,34.34
2019-04-25T08:33:55.911Z,34.45
2019-04-25T08:34:55.919Z,34.36
2019-04-25T08:36:04.460Z,34.34
2019-04-25T08:36:56.100Z,34.42
2019-04-25T08:37:55.983Z,34.39
2019-04-25T08:38:56.007Z,34.42
2019-04-25T08:39:56.144Z,34.48
2019-04-25T08:40:56.053Z,34.48
2019-04-25T08:41:56.076Z,34.52
2019-04-25T08:43:03.652Z,34.47
2019-04-25T08:43:56.123Z,34.45
2019-04-25T08:44:56.146Z,34.54
2019-04-25T08:45:56.168Z,34.51
2019-04-25T08:46:56.194Z,34.56
2019-04-25T08:47:56.214Z,34.47
2019-04-25T08:48:56.240Z,34.45
2019-04-25T08:49:56.260Z,34.48
2019-04-25T08:50:56.286Z,34.39
2019-04-25T08:51:56.314Z,34.36
2019-04-25T08:52:56.337Z,34.32
2019-04-25T08:53:56.358Z,34.34
2019-04-25T08:54:57.592Z,34.29
2019-04-25T08:55:56.402Z,34.30
2019-04-25T08:56:56.426Z,34.27
2019-04-25T08:57:59.456Z,34.33
2019-04-25T08:59:05.372Z,34.27
2019-04-25T08:59:56.492Z,34.26
2019-04-25T09:01:00.799Z,34.20
2019-04-25T09:01:56.544Z,34.07
2019-04-25T09:02:56.565Z,33.95
2019-04-25T09:03:56.584Z,33.95
2019-04-25T09:04:56.609Z,33.93
2019-04-25T09:05:56.736Z,33.90
2019-04-25T09:06:56.654Z,33.87
2019-04-25T09:07:56.676Z,33.87
2019-04-25T09:08:56.700Z,33.95
2019-04-25T09:09:56.735Z,33.99
2019-04-25T09:10:56.759Z,33.95
2019-04-25T09:11:57.029Z,33.90
2019-04-25T09:12:56.789Z,33.89
2019-04-25T09:13:56.826Z,33.87
2019-04-25T09:14:56.843Z,33.89
2019-04-25T09:15:56.864Z,33.89
2019-04-25T09:16:56.883Z,33.81
2019-04-25T09:17:58.752Z,33.80
2019-04-25T09:18:57.159Z,33.81
2019-04-25T09:19:56.948Z,33.74
2019-04-25T09:20:56.974Z,33.73
2019-04-25T09:21:57.064Z,33.52
2019-04-25T09:22:57.019Z,33.52
2019-04-25T09:23:57.040Z,33.47
2019-04-25T09:24:57.206Z,33.39
2019-04-25T09:25:58.213Z,33.43
2019-04-25T09:26:58.909Z,33.44
2019-04-25T09:27:57.381Z,33.52
2019-04-25T09:28:57.155Z,33.46
2019-04-25T09:29:57.176Z,33.44
2019-04-25T09:30:57.200Z,33.40
2019-04-25T09:31:57.224Z,33.46
2019-04-25T09:32:57.242Z,33.40
2019-04-25T09:33:57.894Z,33.34
2019-04-25T09:34:57.305Z,33.43
2019-04-25T09:35:57.312Z,33.41
2019-04-25T09:36:57.333Z,33.39
2019-04-25T09:37:57.358Z,33.33
2019-04-25T09:38:57.382Z,33.12
2019-04-25T09:39:57.402Z,33.12
2019-04-25T09:40:57.424Z,33.12
2019-04-25T09:41:57.469Z,33.12
2019-04-25T09:42:57.467Z,33.01
2019-04-25T09:43:57.494Z,33.09
2019-04-25T09:44:57.515Z,33.11
2019-04-25T09:45:57.536Z,33.05
2019-04-25T09:46:57.558Z,33.01
2019-04-25T09:47:57.581Z,33.05
2019-04-25T09:48:57.609Z,33.01
2019-04-25T09:49:57.626Z,33.08
2019-04-25T09:50:57.646Z,33.11
2019-04-25T09:51:57.668Z,33.05
2019-04-25T09:52:57.690Z,33.04
2019-04-25T09:53:57.715Z,33.05
2019-04-25T09:54:57.737Z,33.06
2019-04-25T09:55:57.759Z,32.96
2019-04-25T09:56:57.784Z,33.05
2019-04-25T09:57:57.804Z,32.93
2019-04-25T09:58:57.838Z,32.91
2019-04-25T09:59:57.846Z,32.83
2019-04-25T10:00:57.868Z,32.86
2019-04-25T10:01:57.891Z,32.79
2019-04-25T10:02:57.921Z,32.93
2019-04-25T10:03:57.937Z,32.96
2019-04-25T10:04:57.956Z,32.87
2019-04-25T10:05:57.980Z,32.99
2019-04-25T10:06:58.002Z,32.96
2019-04-25T10:07:58.024Z,32.98
2019-04-25T10:08:58.046Z,32.86
2019-04-25T10:09:58.340Z,32.89
2019-04-25T10:10:58.090Z,32.80
2019-04-25T10:11:58.120Z,32.77
2019-04-25T10:12:58.147Z,32.67
2019-04-25T10:13:58.157Z,32.65
2019-04-25T10:14:58.178Z,32.64
2019-04-25T10:15:58.201Z,32.60
2019-04-25T10:16:58.305Z,32.53
2019-04-25T10:17:58.277Z,32.53
2019-04-25T10:18:58.363Z,32.56
2019-04-25T10:19:58.305Z,32.47
2019-04-25T10:20:58.749Z,32.46
2019-04-25T10:21:58.336Z,32.46
2019-04-25T10:22:58.436Z,32.46
2019-04-25T10:23:58.388Z,32.50
2019-04-25T10:25:00.682Z,32.45
2019-04-25T10:25:58.435Z,32.45
2019-04-25T10:26:58.463Z,32.46
2019-04-25T10:27:58.496Z,32.40
2019-04-25T10:28:58.567Z,32.31
2019-04-25T10:29:58.506Z,32.33
2019-04-25T10:30:58.529Z,32.31
2019-04-25T10:31:58.555Z,32.33
2019-04-25T10:32:58.575Z,32.33
2019-04-25T10:33:58.605Z,32.28
2019-04-25T10:34:58.615Z,32.27
2019-04-25T10:36:01.011Z,32.25
2019-04-25T10:36:58.659Z,32.25
2019-04-25T10:37:58.688Z,32.30
2019-04-25T10:39:07.519Z,32.19
2019-04-25T10:39:58.725Z,32.30
2019-04-25T10:40:58.754Z,32.35
2019-04-25T10:41:58.767Z,32.33
2019-04-25T10:42:58.789Z,32.27
2019-04-25T10:43:58.811Z,32.28
2019-04-25T10:44:58.833Z,32.27
2019-04-25T10:45:58.856Z,32.25
2019-04-25T10:46:58.881Z,32.20
2019-04-25T10:47:58.897Z,32.23
2019-04-25T10:48:58.933Z,32.24
2019-04-25T10:49:59.239Z,32.27
2019-04-25T10:50:58.962Z,32.19
2019-04-25T10:51:58.989Z,32.12
2019-04-25T10:52:59.004Z,32.16
2019-04-25T10:53:59.029Z,32.03
2019-04-25T10:54:59.056Z,31.97
2019-04-25T10:55:59.070Z,31.97
2019-04-25T10:56:59.094Z,31.98
2019-04-25T10:57:59.113Z,32.03
2019-04-25T10:58:59.135Z,31.96
2019-04-25T11:00:06.532Z,31.90
2019-04-25T11:00:59.183Z,31.97
2019-04-25T11:01:59.200Z,32.03
2019-04-25T11:02:59.220Z,32.06
2019-04-25T11:03:59.334Z,32.06
2019-04-25T11:04:59.291Z,31.97
2019-04-25T11:05:59.295Z,31.93
2019-04-25T11:06:59.307Z,31.87
2019-04-25T11:07:59.328Z,31.89
2019-04-25T11:08:59.358Z,31.91
2019-04-25T11:09:59.371Z,31.93
2019-04-25T11:10:59.399Z,31.82
2019-04-25T11:11:59.413Z,31.74
2019-04-25T11:12:59.461Z,31.90
2019-04-25T11:13:59.467Z,31.80
2019-04-25T11:14:59.489Z,31.87
2019-04-25T11:15:59.507Z,31.74
2019-04-25T11:16:59.521Z,31.70
2019-04-25T11:17:59.544Z,31.71
2019-04-25T11:18:59.578Z,31.74
2019-04-25T11:19:59.587Z,31.77
2019-04-25T11:20:59.650Z,31.74
2019-04-25T11:21:59.628Z,31.74
2019-04-25T11:22:59.650Z,31.73
2019-04-25T11:23:59.667Z,31.66
2019-04-25T11:24:59.690Z,31.71
2019-04-25T11:25:59.712Z,31.62
2019-04-25T11:26:59.732Z,31.56
2019-04-25T11:27:59.754Z,31.59
2019-04-25T11:28:59.790Z,31.68
2019-04-25T11:30:10.502Z,31.59
2019-04-25T11:30:59.831Z,31.59
2019-04-25T11:31:59.838Z,31.52
2019-04-25T11:32:59.862Z,31.51
2019-04-25T11:33:59.883Z,31.58
2019-04-25T11:34:59.926Z,31.51
2019-04-25T11:35:59.924Z,31.59
2019-04-25T11:36:59.947Z,31.60
2019-04-25T11:37:59.967Z,31.63
2019-04-25T11:38:59.989Z,31.63
2019-04-25T11:40:00.012Z,31.66
2019-04-25T11:41:00.032Z,31.71
2019-04-25T11:42:00.053Z,31.56
2019-04-25T11:43:00.074Z,31.49
2019-04-25T11:44:00.503Z,31.49
2019-04-25T11:45:00.558Z,31.48
2019-04-25T11:46:00.136Z,31.49
2019-04-25T11:47:00.162Z,31.48
2019-04-25T11:48:00.178Z,31.56
2019-04-25T11:49:00.199Z,31.59
2019-04-25T11:50:00.223Z,31.49
2019-04-25T11:51:00.351Z,31.53
2019-04-25T11:52:00.264Z,31.44
2019-04-25T11:53:00.945Z,31.51
2019-04-25T11:54:00.305Z,31.48
2019-04-25T11:55:00.331Z,31.44
2019-04-25T11:56:00.349Z,31.53
2019-04-25T11:57:00.377Z,31.52
2019-04-25T11:58:00.390Z,31.41
2019-04-25T11:59:00.415Z,31.43
2019-04-25T12:00:00.433Z,31.41
2019-04-25T12:01:00.588Z,31.40
2019-04-25T12:02:00.479Z,31.48
2019-04-25T12:03:01.425Z,31.46
2019-04-25T12:04:00.519Z,31.41
2019-04-25T12:05:00.538Z,31.29
2019-04-25T12:06:00.571Z,31.41
2019-04-25T12:07:00.592Z,31.41
2019-04-25T12:08:00.602Z,31.43
2019-04-25T12:09:00.635Z,31.38
2019-04-25T12:10:00.645Z,31.36
2019-04-25T12:11:00.710Z,31.37
2019-04-25T12:12:00.688Z,31.34
2019-04-25T12:13:01.150Z,31.36
2019-04-25T12:14:00.729Z,31.38
2019-04-25T12:15:00.750Z,31.37
2019-04-25T12:16:00.843Z,31.36
2019-04-25T12:17:00.792Z,31.33
2019-04-25T12:18:00.813Z,31.37
2019-04-25T12:19:00.854Z,31.41
2019-04-25T12:20:00.854Z,31.34
2019-04-25T12:21:00.878Z,31.31
2019-04-25T12:22:00.897Z,31.36
2019-04-25T12:23:08.507Z,31.40
2019-04-25T12:24:03.699Z,31.37
2019-04-25T12:25:01.059Z,31.43
2019-04-25T12:26:00.985Z,31.38
2019-04-25T12:27:04.157Z,31.30
2019-04-25T12:28:02.408Z,31.30
2019-04-25T12:29:01.097Z,31.36
2019-04-25T12:30:01.304Z,31.26
2019-04-25T12:31:01.091Z,31.30
2019-04-25T12:32:01.115Z,31.31
2019-04-25T12:33:01.130Z,31.19
2019-04-25T12:34:01.155Z,31.03
2019-04-25T12:35:01.172Z,30.99
2019-04-25T12:36:01.192Z,31.06
2019-04-25T12:37:01.312Z,31.06
2019-04-25T12:38:01.305Z,31.02
2019-04-25T12:39:01.302Z,31.03
2019-04-25T12:40:02.453Z,31.03
2019-04-25T12:41:01.298Z,30.89
2019-04-25T12:42:01.319Z,30.88
2019-04-25T12:43:01.340Z,30.84
2019-04-25T12:44:01.361Z,30.85
2019-04-25T12:45:01.383Z,30.93
2019-04-25T12:46:01.468Z,30.88
2019-04-25T12:47:03.261Z,30.88
2019-04-25T12:48:01.442Z,30.78
2019-04-25T12:49:01.464Z,30.87
2019-04-25T12:50:01.485Z,30.77
2019-04-25T12:51:03.092Z,30.70
2019-04-25T12:52:01.527Z,30.74
2019-04-25T12:53:01.546Z,30.63